Portada
METAR-TAF:

METAR-TAF

Aeropuertos :

Fasa, Irán

latitud: 28-58N, longitud: 053-41E, altitud: 1383 m

Observación

El informe se hizo hace 32 minutos, a las 22:00 UTC
Viento calma
Temperatura 20°C
Humedad 43%
Presión 1013 hPa
Visibilidad 10 km o más
sin nubes por debajo de 1500 m y sin presencia de cumulonimbus.

METAR: OISF 282200Z 00000KT CAVOK 20/07 Q1012 A2990

Hora: 03:02 (22:32 UTC)


TAF: falta

Observaciones y pronósticos meteorológicos de más de 4000 aeropuertos (mensajes METAR y TAF).

Los puntos amarillos y rojos representan las estaciones disponibles.

Ponga el ratón en el punto deseado para ver el nombre de la estación.

Haga clic para ver las observaciones y los pronósticos meteorológicos.

Para cambiar el mapa : haga clic en los botones verdes con una cruz de color negro para hacer un zoom, en el botón verde con un guión para alejar o en las flechas verdes para mapas adyacentes.


METAR-TAF: